createdAt,value
2019-03-19T00:04:10.794Z,1.36
2019-03-19T00:09:16.393Z,1.20
2019-03-19T00:14:21.622Z,1.21
2019-03-19T00:19:27.031Z,1.22
2019-03-19T00:24:32.472Z,1.17
2019-03-19T00:29:37.660Z,1.15
2019-03-19T00:34:43.071Z,1.07
2019-03-19T00:39:48.273Z,1.06
2019-03-19T00:44:53.505Z,1.02
2019-03-19T00:49:59.671Z,1.07
2019-03-19T00:55:05.213Z,0.97
2019-03-19T01:00:10.707Z,0.90
2019-03-19T01:05:16.054Z,0.83
2019-03-19T01:10:21.260Z,0.85
2019-03-19T01:15:27.421Z,0.87
2019-03-19T01:20:32.627Z,0.65
2019-03-19T01:25:37.808Z,0.62
2019-03-19T01:30:43.087Z,0.56
2019-03-19T01:35:48.327Z,0.65
2019-03-19T01:40:53.577Z,0.56
2019-03-19T01:45:58.792Z,0.56
2019-03-19T01:51:03.972Z,0.45
2019-03-19T01:56:09.229Z,0.65
2019-03-19T02:01:14.558Z,0.46
2019-03-19T02:06:19.765Z,0.47
2019-03-19T02:11:25.104Z,0.38
2019-03-19T02:16:30.309Z,0.31
2019-03-19T02:21:35.693Z,0.44
2019-03-19T02:26:41.807Z,0.39
2019-03-19T02:31:47.054Z,0.29
2019-03-19T02:36:52.287Z,0.35
2019-03-19T02:41:57.544Z,0.48
2019-03-19T02:47:02.742Z,0.61
2019-03-19T02:52:07.942Z,0.55
2019-03-19T02:57:13.126Z,0.53
2019-03-19T03:02:18.337Z,0.60
2019-03-19T03:07:24.620Z,0.71
2019-03-19T03:12:29.849Z,0.70
2019-03-19T03:17:35.073Z,0.73
2019-03-19T03:22:40.269Z,0.66
2019-03-19T03:27:45.645Z,0.57
2019-03-19T03:32:51.001Z,0.60
2019-03-19T03:37:57.338Z,0.56
2019-03-19T03:43:02.557Z,0.50
2019-03-19T03:48:07.771Z,0.55
2019-03-19T03:53:12.963Z,0.58
2019-03-19T03:58:18.308Z,0.63
2019-03-19T04:03:23.639Z,0.58
2019-03-19T04:08:28.925Z,0.47
2019-03-19T04:13:34.169Z,0.53
2019-03-19T04:18:39.369Z,0.67
2019-03-19T04:23:44.657Z,0.63
2019-03-19T04:28:52.154Z,0.59
2019-03-19T04:33:57.453Z,0.57
2019-03-19T04:39:03.262Z,0.53
2019-03-19T04:44:08.517Z,0.51
2019-03-19T04:49:13.682Z,0.40
2019-03-19T04:54:18.919Z,0.34
2019-03-19T04:59:24.136Z,0.26
2019-03-19T05:04:29.457Z,0.23
2019-03-19T05:09:34.658Z,0.12
2019-03-19T05:14:39.905Z,0.14
2019-03-19T05:19:45.224Z,0.21
2019-03-19T05:24:50.846Z,0.07
2019-03-19T05:29:56.037Z,0.01
2019-03-19T05:35:01.268Z,-0.03
2019-03-19T05:40:07.054Z,0.16
2019-03-19T05:45:12.712Z,0.02
2019-03-19T05:50:19.237Z,0.35
2019-03-19T05:55:24.598Z,0.42
2019-03-19T06:00:31.559Z,0.55
2019-03-19T06:05:36.778Z,0.65
2019-03-19T06:10:42.135Z,0.67
2019-03-19T06:15:47.737Z,0.69
2019-03-19T06:20:53.380Z,0.96
2019-03-19T06:25:58.794Z,1.09
2019-03-19T06:31:04.010Z,1.30
2019-03-19T06:36:09.529Z,1.56
2019-03-19T06:41:14.801Z,1.84
2019-03-19T06:46:19.998Z,1.94
2019-03-19T06:51:25.294Z,2.09
2019-03-19T06:56:30.570Z,2.44
2019-03-19T07:01:35.888Z,2.63
2019-03-19T07:06:41.490Z,2.84
2019-03-19T07:11:47.830Z,3.08
2019-03-19T07:16:54.179Z,3.54
2019-03-19T07:21:59.427Z,3.81
2019-03-19T07:27:04.645Z,3.95
2019-03-19T07:32:10.387Z,4.36
2019-03-19T07:37:16.047Z,4.62
2019-03-19T07:42:21.269Z,4.96
2019-03-19T07:47:26.463Z,5.17
2019-03-19T07:52:31.835Z,5.44
2019-03-19T07:57:37.100Z,5.63
2019-03-19T08:02:42.307Z,5.75
2019-03-19T08:07:47.614Z,6.10
2019-03-19T08:12:52.800Z,6.28
2019-03-19T08:17:58.156Z,6.42
2019-03-19T08:23:03.398Z,6.57
2019-03-19T08:28:08.697Z,6.90
2019-03-19T08:38:19.211Z,6.91
2019-03-19T08:43:24.494Z,7.13
2019-03-19T08:48:29.689Z,7.07
2019-03-19T08:53:35.159Z,7.12
2019-03-19T08:58:40.371Z,7.32
2019-03-19T09:03:45.670Z,7.35
2019-03-19T09:08:50.985Z,7.36
2019-03-19T09:13:56.270Z,7.40
2019-03-19T09:19:01.545Z,7.39
2019-03-19T09:24:06.961Z,7.49
2019-03-19T09:29:16.852Z,8.05
2019-03-19T09:34:19.196Z,7.84
2019-03-19T09:39:24.534Z,7.91
2019-03-19T09:44:29.722Z,7.56
2019-03-19T09:49:34.994Z,8.29
2019-03-19T09:54:40.283Z,8.93
2019-03-19T09:59:45.565Z,9.62
2019-03-19T10:04:51.698Z,9.85
2019-03-19T10:09:57.417Z,8.99
2019-03-19T10:15:02.832Z,8.57
2019-03-19T10:20:10.030Z,8.18
2019-03-19T10:25:15.268Z,8.29
2019-03-19T10:30:20.540Z,8.09
2019-03-19T10:35:25.774Z,8.18
2019-03-19T10:40:30.987Z,8.11
2019-03-19T10:45:36.580Z,8.71
2019-03-19T10:50:41.802Z,9.44
2019-03-19T10:55:47.277Z,9.98
2019-03-19T11:00:52.648Z,10.40
2019-03-19T11:05:57.882Z,10.90
2019-03-19T11:11:03.708Z,11.71
2019-03-19T11:16:08.983Z,10.88
2019-03-19T11:21:14.305Z,12.16
2019-03-19T11:26:19.676Z,11.73
2019-03-19T11:31:25.233Z,11.57
2019-03-19T11:36:30.439Z,11.44
2019-03-19T11:41:35.691Z,10.42
2019-03-19T11:46:40.870Z,9.86
2019-03-19T11:51:46.079Z,12.12
2019-03-19T11:56:51.294Z,13.07
2019-03-19T12:01:56.623Z,14.02
2019-03-19T12:07:01.810Z,15.10
2019-03-19T12:12:07.088Z,15.21
2019-03-19T12:17:12.314Z,16.11
2019-03-19T12:22:17.799Z,16.77
2019-03-19T12:27:24.047Z,17.53
2019-03-19T12:32:29.249Z,15.57
2019-03-19T12:37:34.521Z,15.00
2019-03-19T12:42:39.774Z,17.22
2019-03-19T12:47:45.426Z,17.36
2019-03-19T12:52:50.698Z,18.23
2019-03-19T12:57:56.254Z,20.30
2019-03-19T13:03:01.490Z,20.45
2019-03-19T13:08:06.707Z,21.56
2019-03-19T13:13:12.167Z,22.76
2019-03-19T13:18:20.430Z,23.09
2019-03-19T13:23:26.332Z,25.16
2019-03-19T13:28:32.974Z,24.84
2019-03-19T13:33:38.224Z,24.41
2019-03-19T13:38:43.689Z,22.17
2019-03-19T13:43:48.972Z,18.66
2019-03-19T13:48:54.306Z,17.15
2019-03-19T13:53:59.649Z,16.34
2019-03-19T13:59:05.300Z,15.32
2019-03-19T14:04:11.767Z,14.64
2019-03-19T14:09:17.328Z,13.91
2019-03-19T14:14:22.615Z,13.24
2019-03-19T14:19:28.670Z,13.28
2019-03-19T14:24:33.956Z,12.95
2019-03-19T14:29:39.289Z,12.80
2019-03-19T14:34:44.559Z,12.47
2019-03-19T14:39:49.924Z,12.57
2019-03-19T14:44:55.388Z,12.39
2019-03-19T14:50:00.709Z,12.04
2019-03-19T14:55:06.427Z,11.85
2019-03-19T15:00:13.272Z,11.81
2019-03-19T15:05:18.419Z,11.66
2019-03-19T15:10:23.626Z,11.52
2019-03-19T15:15:28.853Z,11.52
2019-03-19T15:20:34.111Z,11.54
2019-03-19T15:25:39.642Z,11.31
2019-03-19T15:30:44.937Z,11.18
2019-03-19T15:35:51.136Z,11.13
2019-03-19T15:40:56.426Z,11.20
2019-03-19T15:46:01.707Z,10.99
2019-03-19T15:51:06.956Z,10.88
2019-03-19T15:56:12.182Z,11.02
2019-03-19T16:01:18.462Z,10.92
2019-03-19T16:06:23.977Z,10.62
2019-03-19T16:11:29.528Z,10.68
2019-03-19T16:16:34.811Z,10.69
2019-03-19T16:21:40.283Z,10.50
2019-03-19T16:26:45.661Z,10.37
2019-03-19T16:31:52.017Z,10.31
2019-03-19T16:36:57.241Z,10.33
2019-03-19T16:42:02.467Z,10.15
2019-03-19T16:47:08.893Z,10.12
2019-03-19T16:52:14.142Z,9.95
2019-03-19T16:57:19.359Z,10.08
2019-03-19T17:02:24.553Z,9.94
2019-03-19T17:07:29.838Z,9.81
2019-03-19T17:12:35.556Z,9.69
2019-03-19T17:17:40.796Z,9.58
2019-03-19T17:22:46.241Z,9.51
2019-03-19T17:27:51.640Z,9.37
2019-03-19T17:32:56.932Z,9.05
2019-03-19T17:38:02.306Z,9.05
2019-03-19T17:43:07.611Z,8.89
2019-03-19T17:48:16.314Z,8.76
2019-03-19T17:53:20.029Z,8.49
2019-03-19T17:58:25.643Z,8.20
2019-03-19T18:03:30.866Z,7.94
2019-03-19T18:08:36.282Z,7.69
2019-03-19T18:13:42.823Z,7.57
2019-03-19T18:18:48.036Z,7.40
2019-03-19T18:23:53.248Z,7.21
2019-03-19T18:28:58.905Z,7.04
2019-03-19T18:34:10.294Z,6.90
2019-03-19T18:39:13.134Z,6.74
2019-03-19T18:44:18.552Z,6.47
2019-03-19T18:49:24.195Z,6.22
2019-03-19T18:54:29.446Z,6.11
2019-03-19T18:59:35.026Z,5.97
2019-03-19T19:04:40.322Z,6.01
2019-03-19T19:09:45.644Z,5.78
2019-03-19T19:14:50.900Z,5.70
2019-03-19T19:19:56.125Z,5.61
2019-03-19T19:25:01.469Z,5.60
2019-03-19T19:30:09.298Z,5.43
2019-03-19T19:35:14.623Z,5.23
2019-03-19T19:40:20.114Z,5.15
2019-03-19T19:45:25.452Z,4.94
2019-03-19T19:50:30.810Z,4.89
2019-03-19T19:55:36.120Z,4.79
2019-03-19T20:00:41.582Z,4.63
2019-03-19T20:05:46.844Z,4.51
2019-03-19T20:10:52.855Z,4.43
2019-03-19T20:15:59.241Z,4.33
2019-03-19T20:21:04.652Z,4.22
2019-03-19T20:26:10.982Z,4.15
2019-03-19T20:31:16.843Z,4.02
2019-03-19T20:36:22.671Z,4.03
2019-03-19T20:41:28.227Z,3.82
2019-03-19T20:46:34.441Z,3.77
2019-03-19T20:51:39.835Z,3.72
2019-03-19T20:56:45.634Z,3.65
2019-03-19T21:01:51.014Z,3.42
2019-03-19T21:06:56.767Z,3.37
2019-03-19T21:12:02.056Z,3.42
2019-03-19T21:17:07.815Z,3.41
2019-03-19T21:22:15.905Z,3.26
2019-03-19T21:27:21.721Z,3.17
2019-03-19T21:32:27.483Z,3.13
2019-03-19T21:37:32.941Z,3.08
2019-03-19T21:42:39.391Z,2.97
2019-03-19T21:47:46.143Z,2.88
2019-03-19T21:52:52.755Z,2.87
2019-03-19T21:57:58.288Z,2.76
2019-03-19T22:03:03.990Z,2.77
2019-03-19T22:08:09.483Z,2.62
2019-03-19T22:13:14.773Z,2.61
2019-03-19T22:18:20.272Z,2.54
2019-03-19T22:23:25.555Z,2.47
2019-03-19T22:28:30.784Z,2.41
2019-03-19T22:33:36.038Z,2.37
2019-03-19T22:38:42.298Z,2.29
2019-03-19T22:43:47.615Z,2.21
2019-03-19T22:48:52.931Z,2.03
2019-03-19T22:53:58.158Z,1.97
2019-03-19T22:59:04.463Z,2.03
2019-03-19T23:04:09.658Z,1.98
2019-03-19T23:09:15.450Z,2.00
2019-03-19T23:14:21.035Z,1.97
2019-03-19T23:19:26.352Z,1.85
2019-03-19T23:24:31.714Z,1.70
2019-03-19T23:29:36.932Z,1.70
2019-03-19T23:34:42.279Z,1.78
2019-03-19T23:39:47.665Z,1.72
2019-03-19T23:44:54.051Z,1.72
2019-03-19T23:49:59.243Z,1.67
2019-03-19T23:55:04.459Z,1.63
